Pagrindinis puslapis
METAR-TAF:

METAR-TAF

Oro uostai :

Oro pajėgų bazė

Chamis Mušaitas, Saudo Arabija

platuma: 18-18N, ilguma: 042-48E, Aukštis: 2066 m

Dabartinis oras

Ataskaita buvo paskelbta 56 minutes, ne 12:00 UTC
Vėjas 10 kt iš Šiaurės Rytų
Temperatūra 31°C
Drėgmė 11%
Slėgis 1021 hPa
Matomumas 10 km arba daugiau
Mažai debesys ne aukštis 2200 ft

METAR: OEKM 151200Z 05010KT 9999 FEW022 31/M03 Q1021 NOSIG

Laikas: 15:56 (12:56 UTC)

Prognozė

Ataskaita buvo paskelbta 1 valandą ir 56 minutes, ne 11:00 UTC
Prognozė galioja nuo 15 metu 12 UTC su 16 metu 18 UTC
Vėjas 14 kt iš Šiaurės Rytų
Matomumas 10 km arba daugiau
Išsisklaidę debesys ne aukštis 2000 ft
Laikinai
nuo 15 metu 12 UTC su 15 metu 18 UTC
Matomumas: 6000 m
Mažai debesys ne aukštis 2500 ft, Liūtiniai kamuoliniai debesys.
perkūnija, lietus
Tapsmas
nuo 15 metu 18 UTC su 15 metu 20 UTC
Vėjas 3 kt nuo kintamojo kryptimis

TAF: OEKM 151100Z 1512/1618 05014KT 9999 SCT020 TEMPO 1512/1518 6000 TSRA FEW025CB BECMG 1518/1520 VRB03KT

Orai ataskaitas ir orų prognozės (METAR, TAF).

turimą stotys yra geltonos ir raudonos taškus žemėlapyje.

Perkelti pele per norėdami pamatyti stoties vardą.

Tada spustelėkite, norėdami matyti oro stebėjimo ir prognozės.

Norėdami pakeisti žemėlapį: spustelėkite ant žalios mygtukų su juodo kryžiaus žemyn,; žalią mygtuką su brūkšneliu, jei norite nutolinti; arba žalių rodyklių gretimoms žemėlapius.


METAR-TAF: